sensor_id;sensor_type;location;lat;lon;timestamp;temperature;humidity
55331;DHT22;58851;42.984;20.336;2024-02-23T00:01:17;103.10;6476.80
55331;DHT22;58851;42.984;20.336;2024-02-23T00:03:42;103.00;6476.80
55331;DHT22;58851;42.984;20.336;2024-02-23T00:06:08;103.00;6476.80
55331;DHT22;58851;42.984;20.336;2024-02-23T00:08:34;103.00;6476.80
55331;DHT22;58851;42.984;20.336;2024-02-23T00:11:00;103.10;6476.80
55331;DHT22;58851;42.984;20.336;2024-02-23T00:13:26;103.10;6476.80
55331;DHT22;58851;42.984;20.336;2024-02-23T00:15:52;103.20;6476.80
55331;DHT22;58851;42.984;20.336;2024-02-23T00:18:17;103.20;6476.80
55331;DHT22;58851;42.984;20.336;2024-02-23T00:20:43;103.20;6476.80
55331;DHT22;58851;42.984;20.336;2024-02-23T00:23:09;103.20;6476.80
55331;DHT22;58851;42.984;20.336;2024-02-23T00:25:35;103.30;6476.80
55331;DHT22;58851;42.984;20.336;2024-02-23T00:28:01;103.30;6476.80
55331;DHT22;58851;42.984;20.336;2024-02-23T00:30:26;103.30;6476.80
55331;DHT22;58851;42.984;20.336;2024-02-23T00:32:52;103.30;6476.80
55331;DHT22;58851;42.984;20.336;2024-02-23T00:35:18;103.30;6476.80
55331;DHT22;58851;42.984;20.336;2024-02-23T00:37:44;103.30;6476.80
55331;DHT22;58851;42.984;20.336;2024-02-23T00:40:10;103.30;6476.80
55331;DHT22;58851;42.984;20.336;2024-02-23T00:42:36;103.30;6476.80
55331;DHT22;58851;42.984;20.336;2024-02-23T00:45:04;103.30;6476.80
55331;DHT22;58851;42.984;20.336;2024-02-23T00:47:30;128.00;6502.40
55331;DHT22;58851;42.984;20.336;2024-02-23T00:49:56;128.00;6502.40
55331;DHT22;58851;42.984;20.336;2024-02-23T00:52:22;103.30;6476.80
55331;DHT22;58851;42.984;20.336;2024-02-23T00:54:47;103.30;6476.80
55331;DHT22;58851;42.984;20.336;2024-02-23T00:57:13;103.30;6476.80
55331;DHT22;58851;42.984;20.336;2024-02-23T00:59:39;103.30;6476.80
55331;DHT22;58851;42.984;20.336;2024-02-23T01:02:05;128.00;6502.40
55331;DHT22;58851;42.984;20.336;2024-02-23T01:04:30;103.30;6476.80
55331;DHT22;58851;42.984;20.336;2024-02-23T01:06:57;103.30;6476.80
55331;DHT22;58851;42.984;20.336;2024-02-23T01:09:23;103.30;6476.80
55331;DHT22;58851;42.984;20.336;2024-02-23T01:11:49;103.20;6476.80
55331;DHT22;58851;42.984;20.336;2024-02-23T01:14:15;103.20;6476.80
55331;DHT22;58851;42.984;20.336;2024-02-23T01:16:41;103.20;6476.80
55331;DHT22;58851;42.984;20.336;2024-02-23T01:19:06;103.20;6476.80
55331;DHT22;58851;42.984;20.336;2024-02-23T01:21:33;103.20;6476.80
55331;DHT22;58851;42.984;20.336;2024-02-23T01:23:58;103.30;6476.80
55331;DHT22;58851;42.984;20.336;2024-02-23T01:26:26;103.20;6476.80
55331;DHT22;58851;42.984;20.336;2024-02-23T01:28:53;103.20;6476.80
55331;DHT22;58851;42.984;20.336;2024-02-23T01:31:19;103.30;6476.80
55331;DHT22;58851;42.984;20.336;2024-02-23T01:33:45;103.30;6476.80
55331;DHT22;58851;42.984;20.336;2024-02-23T01:36:11;128.00;6502.40
55331;DHT22;58851;42.984;20.336;2024-02-23T01:38:37;128.00;6502.40
55331;DHT22;58851;42.984;20.336;2024-02-23T01:41:03;128.00;6502.40
55331;DHT22;58851;42.984;20.336;2024-02-23T01:43:29;128.00;6502.40
55331;DHT22;58851;42.984;20.336;2024-02-23T01:45:55;128.00;6502.40
55331;DHT22;58851;42.984;20.336;2024-02-23T01:48:21;128.00;6502.40
55331;DHT22;58851;42.984;20.336;2024-02-23T01:50:47;128.00;6502.40
55331;DHT22;58851;42.984;20.336;2024-02-23T01:53:13;128.00;6502.40
55331;DHT22;58851;42.984;20.336;2024-02-23T01:55:42;128.00;6502.40
55331;DHT22;58851;42.984;20.336;2024-02-23T01:58:09;103.30;6476.80
55331;DHT22;58851;42.984;20.336;2024-02-23T02:00:36;128.00;6502.40
55331;DHT22;58851;42.984;20.336;2024-02-23T02:03:02;128.00;6502.40
55331;DHT22;58851;42.984;20.336;2024-02-23T02:05:28;128.00;6502.40
55331;DHT22;58851;42.984;20.336;2024-02-23T02:07:55;128.00;6502.40
55331;DHT22;58851;42.984;20.336;2024-02-23T02:10:25;128.00;6502.40
55331;DHT22;58851;42.984;20.336;2024-02-23T02:12:52;128.00;6502.40
55331;DHT22;58851;42.984;20.336;2024-02-23T02:15:17;128.10;6502.40
55331;DHT22;58851;42.984;20.336;2024-02-23T02:17:43;128.00;6502.40
55331;DHT22;58851;42.984;20.336;2024-02-23T02:20:13;103.30;6476.80
55331;DHT22;58851;42.984;20.336;2024-02-23T02:22:39;128.00;6502.40
55331;DHT22;58851;42.984;20.336;2024-02-23T02:25:06;128.00;6502.40
55331;DHT22;58851;42.984;20.336;2024-02-23T02:27:32;128.00;6502.40
55331;DHT22;58851;42.984;20.336;2024-02-23T02:29:58;128.00;6502.40
55331;DHT22;58851;42.984;20.336;2024-02-23T02:32:24;128.00;6502.40
55331;DHT22;58851;42.984;20.336;2024-02-23T02:34:50;128.00;6502.40
55331;DHT22;58851;42.984;20.336;2024-02-23T02:37:16;128.00;6502.40
55331;DHT22;58851;42.984;20.336;2024-02-23T02:39:42;128.10;6502.40
55331;DHT22;58851;42.984;20.336;2024-02-23T02:42:07;128.10;6502.40
55331;DHT22;58851;42.984;20.336;2024-02-23T02:44:33;128.20;6502.40
55331;DHT22;58851;42.984;20.336;2024-02-23T02:47:00;128.00;6502.40
55331;DHT22;58851;42.984;20.336;2024-02-23T02:49:25;128.00;6502.40
55331;DHT22;58851;42.984;20.336;2024-02-23T02:51:52;128.10;6502.40
55331;DHT22;58851;42.984;20.336;2024-02-23T02:54:18;128.10;6502.40
55331;DHT22;58851;42.984;20.336;2024-02-23T02:56:44;128.10;6502.40
55331;DHT22;58851;42.984;20.336;2024-02-23T02:59:12;128.10;6502.40
55331;DHT22;58851;42.984;20.336;2024-02-23T03:01:38;128.20;6502.40
55331;DHT22;58851;42.984;20.336;2024-02-23T03:04:04;128.20;6502.40
55331;DHT22;58851;42.984;20.336;2024-02-23T03:06:30;128.20;6502.40
55331;DHT22;58851;42.984;20.336;2024-02-23T03:08:56;128.20;6502.40
55331;DHT22;58851;42.984;20.336;2024-02-23T03:11:22;128.20;6502.40
55331;DHT22;58851;42.984;20.336;2024-02-23T03:13:48;128.30;6502.40
55331;DHT22;58851;42.984;20.336;2024-02-23T03:16:17;128.30;6502.40
55331;DHT22;58851;42.984;20.336;2024-02-23T03:18:44;128.30;6502.40
55331;DHT22;58851;42.984;20.336;2024-02-23T03:21:10;128.20;6502.40
55331;DHT22;58851;42.984;20.336;2024-02-23T03:23:36;128.00;6502.40
55331;DHT22;58851;42.984;20.336;2024-02-23T03:26:02;128.00;6502.40
55331;DHT22;58851;42.984;20.336;2024-02-23T03:28:28;128.10;6502.40
55331;DHT22;58851;42.984;20.336;2024-02-23T03:30:54;128.20;6502.40
55331;DHT22;58851;42.984;20.336;2024-02-23T03:33:20;128.30;6502.40
55331;DHT22;58851;42.984;20.336;2024-02-23T03:35:46;128.30;6502.40
55331;DHT22;58851;42.984;20.336;2024-02-23T03:38:11;128.30;6502.40
55331;DHT22;58851;42.984;20.336;2024-02-23T03:40:37;128.30;6502.40
55331;DHT22;58851;42.984;20.336;2024-02-23T03:43:03;128.40;6502.40
55331;DHT22;58851;42.984;20.336;2024-02-23T03:45:29;128.30;6502.40
55331;DHT22;58851;42.984;20.336;2024-02-23T03:47:55;128.30;6502.40
55331;DHT22;58851;42.984;20.336;2024-02-23T03:50:21;128.30;6502.40
55331;DHT22;58851;42.984;20.336;2024-02-23T03:52:46;128.30;6502.40
55331;DHT22;58851;42.984;20.336;2024-02-23T03:55:12;128.40;6502.40
55331;DHT22;58851;42.984;20.336;2024-02-23T03:57:38;128.30;6502.40
55331;DHT22;58851;42.984;20.336;2024-02-23T04:00:04;128.30;6502.40
55331;DHT22;58851;42.984;20.336;2024-02-23T04:02:31;128.30;6502.40
55331;DHT22;58851;42.984;20.336;2024-02-23T04:04:57;128.10;6502.40
55331;DHT22;58851;42.984;20.336;2024-02-23T04:07:23;128.20;6502.40
55331;DHT22;58851;42.984;20.336;2024-02-23T04:09:49;128.30;6502.40
55331;DHT22;58851;42.984;20.336;2024-02-23T04:12:21;128.20;6502.40
55331;DHT22;58851;42.984;20.336;2024-02-23T04:14:47;128.30;6502.40
55331;DHT22;58851;42.984;20.336;2024-02-23T04:17:13;128.30;6502.40
55331;DHT22;58851;42.984;20.336;2024-02-23T04:19:40;128.40;6502.40
55331;DHT22;58851;42.984;20.336;2024-02-23T04:22:06;128.30;6502.40
55331;DHT22;58851;42.984;20.336;2024-02-23T04:24:39;128.30;6502.40
55331;DHT22;58851;42.984;20.336;2024-02-23T04:27:06;128.30;6502.40
55331;DHT22;58851;42.984;20.336;2024-02-23T04:29:32;128.30;6502.40
55331;DHT22;58851;42.984;20.336;2024-02-23T04:31:59;128.30;6502.40
55331;DHT22;58851;42.984;20.336;2024-02-23T04:34:25;128.40;6502.40
55331;DHT22;58851;42.984;20.336;2024-02-23T04:36:51;128.40;6502.40
55331;DHT22;58851;42.984;20.336;2024-02-23T04:39:17;128.40;6502.40
55331;DHT22;58851;42.984;20.336;2024-02-23T04:41:43;128.50;6502.40
55331;DHT22;58851;42.984;20.336;2024-02-23T04:44:08;128.40;6502.40
55331;DHT22;58851;42.984;20.336;2024-02-23T04:46:34;128.40;6502.40
55331;DHT22;58851;42.984;20.336;2024-02-23T04:49:01;128.50;6502.40
55331;DHT22;58851;42.984;20.336;2024-02-23T04:51:27;128.50;6502.40
55331;DHT22;58851;42.984;20.336;2024-02-23T04:53:53;128.50;6502.40
55331;DHT22;58851;42.984;20.336;2024-02-23T04:56:19;128.40;6502.40
55331;DHT22;58851;42.984;20.336;2024-02-23T04:58:45;128.50;6502.40
55331;DHT22;58851;42.984;20.336;2024-02-23T05:01:11;128.40;6502.40
55331;DHT22;58851;42.984;20.336;2024-02-23T05:03:37;128.40;6502.40
55331;DHT22;58851;42.984;20.336;2024-02-23T05:06:04;128.40;6502.40
55331;DHT22;58851;42.984;20.336;2024-02-23T05:08:29;128.50;6502.40
55331;DHT22;58851;42.984;20.336;2024-02-23T05:10:56;128.50;6502.40
55331;DHT22;58851;42.984;20.336;2024-02-23T05:13:23;128.40;6502.40
55331;DHT22;58851;42.984;20.336;2024-02-23T05:15:48;128.30;6502.40
55331;DHT22;58851;42.984;20.336;2024-02-23T05:18:14;128.40;6502.40
55331;DHT22;58851;42.984;20.336;2024-02-23T05:20:40;128.30;6502.40
55331;DHT22;58851;42.984;20.336;2024-02-23T05:23:06;128.30;6502.40
55331;DHT22;58851;42.984;20.336;2024-02-23T05:25:33;128.30;6502.40
55331;DHT22;58851;42.984;20.336;2024-02-23T05:27:59;128.40;6502.40
55331;DHT22;58851;42.984;20.336;2024-02-23T05:30:24;128.40;6502.40
55331;DHT22;58851;42.984;20.336;2024-02-23T05:32:53;128.40;6502.40
55331;DHT22;58851;42.984;20.336;2024-02-23T05:35:19;128.40;6502.40
55331;DHT22;58851;42.984;20.336;2024-02-23T05:37:45;128.40;6502.40
55331;DHT22;58851;42.984;20.336;2024-02-23T05:40:11;128.50;6502.40
55331;DHT22;58851;42.984;20.336;2024-02-23T05:42:37;128.50;6502.40
55331;DHT22;58851;42.984;20.336;2024-02-23T05:45:04;128.60;6502.40
55331;DHT22;58851;42.984;20.336;2024-02-23T05:47:30;128.70;6502.40
55331;DHT22;58851;42.984;20.336;2024-02-23T05:49:56;128.70;6502.40
55331;DHT22;58851;42.984;20.336;2024-02-23T05:52:22;128.70;6502.40
55331;DHT22;58851;42.984;20.336;2024-02-23T05:54:48;128.80;6502.40
55331;DHT22;58851;42.984;20.336;2024-02-23T05:57:14;128.80;6502.40
55331;DHT22;58851;42.984;20.336;2024-02-23T05:59:41;128.90;6502.40
55331;DHT22;58851;42.984;20.336;2024-02-23T06:02:08;153.60;6502.40
55331;DHT22;58851;42.984;20.336;2024-02-23T06:04:34;153.70;6502.40
55331;DHT22;58851;42.984;20.336;2024-02-23T06:07:00;153.70;6502.40
55331;DHT22;58851;42.984;20.336;2024-02-23T06:09:25;153.80;6502.40
55331;DHT22;58851;42.984;20.336;2024-02-23T06:11:51;153.90;6502.40
55331;DHT22;58851;42.984;20.336;2024-02-23T06:14:17;153.90;6502.40
55331;DHT22;58851;42.984;20.336;2024-02-23T06:16:43;154.00;6502.40
55331;DHT22;58851;42.984;20.336;2024-02-23T06:19:09;154.00;6502.40
55331;DHT22;58851;42.984;20.336;2024-02-23T06:21:35;154.10;6502.40
55331;DHT22;58851;42.984;20.336;2024-02-23T06:24:01;154.10;6502.40
55331;DHT22;58851;42.984;20.336;2024-02-23T06:26:28;154.20;6502.40
55331;DHT22;58851;42.984;20.336;2024-02-23T06:28:54;154.20;6502.40
55331;DHT22;58851;42.984;20.336;2024-02-23T06:31:19;154.30;6502.40
55331;DHT22;58851;42.984;20.336;2024-02-23T06:33:45;154.30;6502.40
55331;DHT22;58851;42.984;20.336;2024-02-23T06:36:14;154.40;6502.40
55331;DHT22;58851;42.984;20.336;2024-02-23T06:38:40;154.40;6502.40
55331;DHT22;58851;42.984;20.336;2024-02-23T06:41:05;154.40;6502.40
55331;DHT22;58851;42.984;20.336;2024-02-23T06:43:33;154.40;6502.40
55331;DHT22;58851;42.984;20.336;2024-02-23T06:46:05;154.50;6502.40
55331;DHT22;58851;42.984;20.336;2024-02-23T06:48:30;179.20;6502.40
55331;DHT22;58851;42.984;20.336;2024-02-23T06:50:57;179.20;6502.40
55331;DHT22;58851;42.984;20.336;2024-02-23T06:53:23;179.30;6502.40
55331;DHT22;58851;42.984;20.336;2024-02-23T06:55:49;179.30;6502.40
55331;DHT22;58851;42.984;20.336;2024-02-23T06:58:15;179.40;6502.40
55331;DHT22;58851;42.984;20.336;2024-02-23T07:00:42;179.40;6502.40
55331;DHT22;58851;42.984;20.336;2024-02-23T07:03:08;179.50;6502.40
55331;DHT22;58851;42.984;20.336;2024-02-23T07:05:33;179.60;6502.40
55331;DHT22;58851;42.984;20.336;2024-02-23T07:08:01;179.70;6502.40
55331;DHT22;58851;42.984;20.336;2024-02-23T07:10:27;179.60;6502.40
55331;DHT22;58851;42.984;20.336;2024-02-23T07:12:53;179.70;6502.40
55331;DHT22;58851;42.984;20.336;2024-02-23T07:15:20;179.90;6502.40
55331;DHT22;58851;42.984;20.336;2024-02-23T07:17:46;180.10;6502.40
55331;DHT22;58851;42.984;20.336;2024-02-23T07:20:12;180.10;6502.40
55331;DHT22;58851;42.984;20.336;2024-02-23T07:22:38;204.80;6502.40
55331;DHT22;58851;42.984;20.336;2024-02-23T07:25:05;180.10;6502.40
55331;DHT22;58851;42.984;20.336;2024-02-23T07:27:31;204.80;6502.40
55331;DHT22;58851;42.984;20.336;2024-02-23T07:29:57;204.90;6502.40
55331;DHT22;58851;42.984;20.336;2024-02-23T07:32:23;204.80;6502.40
55331;DHT22;58851;42.984;20.336;2024-02-23T07:34:49;204.90;6502.40
55331;DHT22;58851;42.984;20.336;2024-02-23T07:37:15;204.90;6502.40
55331;DHT22;58851;42.984;20.336;2024-02-23T07:39:41;205.00;6502.40
55331;DHT22;58851;42.984;20.336;2024-02-23T07:42:06;205.10;6502.40
55331;DHT22;58851;42.984;20.336;2024-02-23T07:44:35;205.20;6502.40
55331;DHT22;58851;42.984;20.336;2024-02-23T07:47:00;205.30;6502.40
55331;DHT22;58851;42.984;20.336;2024-02-23T07:49:26;205.40;6502.40
55331;DHT22;58851;42.984;20.336;2024-02-23T07:51:54;205.50;6502.40
55331;DHT22;58851;42.984;20.336;2024-02-23T07:54:20;205.60;128.00
55331;DHT22;58851;42.984;20.336;2024-02-23T07:56:45;205.70;6502.40
55331;DHT22;58851;42.984;20.336;2024-02-23T07:59:14;230.50;6502.40
55331;DHT22;58851;42.984;20.336;2024-02-23T08:01:40;230.50;6502.40
55331;DHT22;58851;42.984;20.336;2024-02-23T08:04:05;230.50;128.00
55331;DHT22;58851;42.984;20.336;2024-02-23T08:06:31;230.50;128.00
55331;DHT22;58851;42.984;20.336;2024-02-23T08:08:57;230.60;128.00
55331;DHT22;58851;42.984;20.336;2024-02-23T08:11:23;230.60;307.20
55331;DHT22;58851;42.984;20.336;2024-02-23T08:13:49;230.60;6502.40
55331;DHT22;58851;42.984;20.336;2024-02-23T08:16:18;230.50;409.60
55331;DHT22;58851;42.984;20.336;2024-02-23T08:18:44;230.50;179.20
55331;DHT22;58851;42.984;20.336;2024-02-23T08:21:12;230.60;179.20
55331;DHT22;58851;42.984;20.336;2024-02-23T08:23:38;230.60;128.00
55331;DHT22;58851;42.984;20.336;2024-02-23T08:26:05;230.70;256.00
55331;DHT22;58851;42.984;20.336;2024-02-23T08:28:31;230.70;6502.40
55331;DHT22;58851;42.984;20.336;2024-02-23T08:30:57;230.80;6502.40
55331;DHT22;58851;42.984;20.336;2024-02-23T08:33:23;231.00;6502.40
55331;DHT22;58851;42.984;20.336;2024-02-23T08:35:49;231.00;6502.40
55331;DHT22;58851;42.984;20.336;2024-02-23T08:38:14;231.10;6528.00
55331;DHT22;58851;42.984;20.336;2024-02-23T08:40:40;231.20;230.40
55331;DHT22;58851;42.984;20.336;2024-02-23T08:43:07;231.30;384.00
55331;DHT22;58851;42.984;20.336;2024-02-23T08:45:33;256.10;128.00
55331;DHT22;58851;42.984;20.336;2024-02-23T08:47:59;256.00;6502.40
55331;DHT22;58851;42.984;20.336;2024-02-23T08:50:24;256.10;256.00
55331;DHT22;58851;42.984;20.336;2024-02-23T08:52:50;256.10;204.80
55331;DHT22;58851;42.984;20.336;2024-02-23T08:55:16;256.20;128.00
55331;DHT22;58851;42.984;20.336;2024-02-23T08:57:42;256.30;6502.40
55331;DHT22;58851;42.984;20.336;2024-02-23T09:00:08;256.40;358.40
55331;DHT22;58851;42.984;20.336;2024-02-23T09:02:34;256.50;6502.40
55331;DHT22;58851;42.984;20.336;2024-02-23T09:05:04;256.60;6502.40
55331;DHT22;58851;42.984;20.336;2024-02-23T09:07:30;256.60;6502.40
55331;DHT22;58851;42.984;20.336;2024-02-23T09:09:56;256.60;6502.40
55331;DHT22;58851;42.984;20.336;2024-02-23T09:12:22;256.70;6502.40
55331;DHT22;58851;42.984;20.336;2024-02-23T09:14:48;256.70;6502.40
55331;DHT22;58851;42.984;20.336;2024-02-23T09:17:14;256.70;6502.40
55331;DHT22;58851;42.984;20.336;2024-02-23T09:19:40;256.80;6502.40
55331;DHT22;58851;42.984;20.336;2024-02-23T09:22:05;256.80;6502.40
55331;DHT22;58851;42.984;20.336;2024-02-23T09:24:31;256.70;6502.40
55331;DHT22;58851;42.984;20.336;2024-02-23T09:26:57;256.60;6502.40
55331;DHT22;58851;42.984;20.336;2024-02-23T09:29:23;256.60;6502.40
55331;DHT22;58851;42.984;20.336;2024-02-23T09:31:49;256.70;6502.40
55331;DHT22;58851;42.984;20.336;2024-02-23T09:34:14;256.70;6502.40
55331;DHT22;58851;42.984;20.336;2024-02-23T09:36:40;256.70;6502.40
55331;DHT22;58851;42.984;20.336;2024-02-23T09:39:06;256.90;6502.40
55331;DHT22;58851;42.984;20.336;2024-02-23T09:41:32;281.70;6528.00
55331;DHT22;58851;42.984;20.336;2024-02-23T09:44:01;281.80;6528.00
55331;DHT22;58851;42.984;20.336;2024-02-23T09:46:28;281.90;6528.00
55331;DHT22;58851;42.984;20.336;2024-02-23T09:48:55;281.90;6528.00
55331;DHT22;58851;42.984;20.336;2024-02-23T09:51:23;281.90;6528.00
55331;DHT22;58851;42.984;20.336;2024-02-23T09:53:50;281.80;6528.00
55331;DHT22;58851;42.984;20.336;2024-02-23T09:56:17;281.70;6528.00
55331;DHT22;58851;42.984;20.336;2024-02-23T09:58:46;281.80;6528.00
55331;DHT22;58851;42.984;20.336;2024-02-23T10:01:15;281.80;6528.00
55331;DHT22;58851;42.984;20.336;2024-02-23T10:03:45;282.00;6528.00
55331;DHT22;58851;42.984;20.336;2024-02-23T10:06:11;282.10;6528.00
55331;DHT22;58851;42.984;20.336;2024-02-23T10:08:37;282.30;6528.00
55331;DHT22;58851;42.984;20.336;2024-02-23T10:11:02;307.20;128.00
55331;DHT22;58851;42.984;20.336;2024-02-23T10:13:29;307.30;128.00
55331;DHT22;58851;42.984;20.336;2024-02-23T10:15:55;307.40;128.00
55331;DHT22;58851;42.984;20.336;2024-02-23T10:18:21;307.50;128.00
55331;DHT22;58851;42.984;20.336;2024-02-23T10:20:48;307.40;128.00
55331;DHT22;58851;42.984;20.336;2024-02-23T10:23:16;307.30;128.00
55331;DHT22;58851;42.984;20.336;2024-02-23T10:25:41;307.30;128.00
55331;DHT22;58851;42.984;20.336;2024-02-23T10:28:07;307.50;128.00
55331;DHT22;58851;42.984;20.336;2024-02-23T10:30:37;307.50;128.00
55331;DHT22;58851;42.984;20.336;2024-02-23T10:33:06;307.50;128.00
55331;DHT22;58851;42.984;20.336;2024-02-23T10:35:32;307.60;128.00
55331;DHT22;58851;42.984;20.336;2024-02-23T10:38:02;307.50;128.00
55331;DHT22;58851;42.984;20.336;2024-02-23T10:40:30;307.60;128.00
55331;DHT22;58851;42.984;20.336;2024-02-23T10:43:01;307.60;128.00
55331;DHT22;58851;42.984;20.336;2024-02-23T10:45:29;307.60;128.00
55331;DHT22;58851;42.984;20.336;2024-02-23T10:47:55;307.70;128.00
55331;DHT22;58851;42.984;20.336;2024-02-23T10:50:22;307.70;128.00
55331;DHT22;58851;42.984;20.336;2024-02-23T10:52:49;307.80;128.00
55331;DHT22;58851;42.984;20.336;2024-02-23T10:55:16;307.90;128.00
55331;DHT22;58851;42.984;20.336;2024-02-23T10:57:42;307.80;128.00
55331;DHT22;58851;42.984;20.336;2024-02-23T11:00:09;307.70;128.00
55331;DHT22;58851;42.984;20.336;2024-02-23T11:02:45;307.70;128.00
55331;DHT22;58851;42.984;20.336;2024-02-23T11:05:13;307.90;128.00
55331;DHT22;58851;42.984;20.336;2024-02-23T11:07:40;307.90;128.00
55331;DHT22;58851;42.984;20.336;2024-02-23T11:10:06;308.00;128.00
55331;DHT22;58851;42.984;20.336;2024-02-23T11:12:35;308.10;128.00
55331;DHT22;58851;42.984;20.336;2024-02-23T11:15:01;308.00;128.00
55331;DHT22;58851;42.984;20.336;2024-02-23T11:17:30;307.90;128.00
55331;DHT22;58851;42.984;20.336;2024-02-23T11:19:56;307.60;128.00
55331;DHT22;58851;42.984;20.336;2024-02-23T11:22:33;307.40;128.00
55331;DHT22;58851;42.984;20.336;2024-02-23T11:25:04;307.30;128.00
55331;DHT22;58851;42.984;20.336;2024-02-23T11:27:32;307.20;128.00
55331;DHT22;58851;42.984;20.336;2024-02-23T11:30:08;307.20;128.00
55331;DHT22;58851;42.984;20.336;2024-02-23T11:32:41;307.30;128.00
55331;DHT22;58851;42.984;20.336;2024-02-23T11:35:10;307.40;128.00
55331;DHT22;58851;42.984;20.336;2024-02-23T11:37:48;307.30;128.00
55331;DHT22;58851;42.984;20.336;2024-02-23T11:40:16;307.20;128.00
55331;DHT22;58851;42.984;20.336;2024-02-23T11:42:43;307.20;128.00
55331;DHT22;58851;42.984;20.336;2024-02-23T11:45:10;307.20;128.00
55331;DHT22;58851;42.984;20.336;2024-02-23T11:47:39;307.20;128.00
55331;DHT22;58851;42.984;20.336;2024-02-23T11:50:09;307.30;128.00
55331;DHT22;58851;42.984;20.336;2024-02-23T11:52:38;307.30;128.00
55331;DHT22;58851;42.984;20.336;2024-02-23T11:55:05;307.40;128.00
55331;DHT22;58851;42.984;20.336;2024-02-23T11:57:33;307.40;128.00
55331;DHT22;58851;42.984;20.336;2024-02-23T12:00:03;307.40;128.00
55331;DHT22;58851;42.984;20.336;2024-02-23T12:02:35;307.50;128.00
55331;DHT22;58851;42.984;20.336;2024-02-23T12:05:01;307.50;128.00
55331;DHT22;58851;42.984;20.336;2024-02-23T12:07:30;307.50;128.00
55331;DHT22;58851;42.984;20.336;2024-02-23T12:09:56;307.50;128.00
55331;DHT22;58851;42.984;20.336;2024-02-23T12:12:26;307.40;128.00
55331;DHT22;58851;42.984;20.336;2024-02-23T12:14:53;307.50;128.00
55331;DHT22;58851;42.984;20.336;2024-02-23T12:17:19;307.60;128.00
55331;DHT22;58851;42.984;20.336;2024-02-23T12:19:45;307.60;128.00
55331;DHT22;58851;42.984;20.336;2024-02-23T12:22:11;307.60;128.00
55331;DHT22;58851;42.984;20.336;2024-02-23T12:24:37;307.60;128.00
55331;DHT22;58851;42.984;20.336;2024-02-23T12:27:03;307.60;128.00
55331;DHT22;58851;42.984;20.336;2024-02-23T12:29:31;307.60;128.00
55331;DHT22;58851;42.984;20.336;2024-02-23T12:32:04;307.60;128.00
55331;DHT22;58851;42.984;20.336;2024-02-23T12:34:30;307.60;128.00
55331;DHT22;58851;42.984;20.336;2024-02-23T12:36:56;307.70;128.00
55331;DHT22;58851;42.984;20.336;2024-02-23T12:39:21;307.70;128.00
55331;DHT22;58851;42.984;20.336;2024-02-23T12:41:47;307.80;128.00
55331;DHT22;58851;42.984;20.336;2024-02-23T12:44:13;307.90;128.00
55331;DHT22;58851;42.984;20.336;2024-02-23T12:46:39;308.10;128.00
55331;DHT22;58851;42.984;20.336;2024-02-23T12:49:05;308.10;128.00
55331;DHT22;58851;42.984;20.336;2024-02-23T12:51:31;332.80;128.00
55331;DHT22;58851;42.984;20.336;2024-02-23T12:53:57;332.80;128.00
55331;DHT22;58851;42.984;20.336;2024-02-23T12:56:23;332.90;128.00
55331;DHT22;58851;42.984;20.336;2024-02-23T12:58:50;332.90;128.00
55331;DHT22;58851;42.984;20.336;2024-02-23T13:01:17;332.90;128.00
55331;DHT22;58851;42.984;20.336;2024-02-23T13:03:44;332.90;128.00
55331;DHT22;58851;42.984;20.336;2024-02-23T13:06:09;332.90;128.00
55331;DHT22;58851;42.984;20.336;2024-02-23T13:08:35;332.80;128.00
55331;DHT22;58851;42.984;20.336;2024-02-23T13:11:01;332.90;128.00
55331;DHT22;58851;42.984;20.336;2024-02-23T13:13:27;332.80;128.00
55331;DHT22;58851;42.984;20.336;2024-02-23T13:15:54;308.10;128.00
55331;DHT22;58851;42.984;20.336;2024-02-23T13:18:20;308.10;128.00
55331;DHT22;58851;42.984;20.336;2024-02-23T13:20:47;332.80;128.00
55331;DHT22;58851;42.984;20.336;2024-02-23T13:23:13;308.10;128.00
55331;DHT22;58851;42.984;20.336;2024-02-23T13:25:41;308.10;128.00
55331;DHT22;58851;42.984;20.336;2024-02-23T13:28:07;307.90;128.00
55331;DHT22;58851;42.984;20.336;2024-02-23T13:30:34;307.90;128.00
55331;DHT22;58851;42.984;20.336;2024-02-23T13:33:00;307.80;128.00
55331;DHT22;58851;42.984;20.336;2024-02-23T13:35:26;307.70;128.00
55331;DHT22;58851;42.984;20.336;2024-02-23T13:37:52;307.60;128.00
55331;DHT22;58851;42.984;20.336;2024-02-23T13:40:18;307.60;128.00
55331;DHT22;58851;42.984;20.336;2024-02-23T13:42:45;307.60;128.00
55331;DHT22;58851;42.984;20.336;2024-02-23T13:45:19;307.60;128.00
55331;DHT22;58851;42.984;20.336;2024-02-23T13:48:00;307.60;128.00
55331;DHT22;58851;42.984;20.336;2024-02-23T13:50:26;307.60;128.00
55331;DHT22;58851;42.984;20.336;2024-02-23T13:52:52;307.50;128.00
55331;DHT22;58851;42.984;20.336;2024-02-23T13:55:19;307.50;128.00
55331;DHT22;58851;42.984;20.336;2024-02-23T13:57:48;307.50;128.00
55331;DHT22;58851;42.984;20.336;2024-02-23T14:00:16;307.40;128.00
55331;DHT22;58851;42.984;20.336;2024-02-23T14:02:42;307.40;128.00
55331;DHT22;58851;42.984;20.336;2024-02-23T14:05:08;307.30;128.00
55331;DHT22;58851;42.984;20.336;2024-02-23T14:07:34;307.20;128.00
55331;DHT22;58851;42.984;20.336;2024-02-23T14:10:01;282.50;6528.00
55331;DHT22;58851;42.984;20.336;2024-02-23T14:12:28;282.50;6528.00
55331;DHT22;58851;42.984;20.336;2024-02-23T14:14:54;307.20;128.00
55331;DHT22;58851;42.984;20.336;2024-02-23T14:17:20;307.20;128.00
55331;DHT22;58851;42.984;20.336;2024-02-23T14:19:45;307.30;128.00
55331;DHT22;58851;42.984;20.336;2024-02-23T14:22:11;307.30;128.00
55331;DHT22;58851;42.984;20.336;2024-02-23T14:24:37;307.20;128.00
55331;DHT22;58851;42.984;20.336;2024-02-23T14:27:03;307.30;128.00
55331;DHT22;58851;42.984;20.336;2024-02-23T14:29:29;307.40;128.00
55331;DHT22;58851;42.984;20.336;2024-02-23T14:31:55;307.30;128.00
55331;DHT22;58851;42.984;20.336;2024-02-23T14:34:20;307.40;128.00
55331;DHT22;58851;42.984;20.336;2024-02-23T14:36:49;307.40;128.00